Time;durP1;ratioP1;P1;durP2;ratioP2;P2;SDS_P1;SDS_P2;PMS_P1;PMS_P2;Temp;Humidity;BMP_temperature;BMP_pressure;BME280_temperature;BME280_humidity;BME280_pressure;Samples;Min_cycle;Max_cycle;Signal;HPM_P1;HPM_P2
2021/03/17 00:01:00;;;;;;;9.68;7.75;;;128.70;2150.40;;;;;;5072045;28;20096;-75
2021/03/17 00:03:26;;;;;;;10.02;7.90;;;128.50;2150.40;;;;;;5066727;28;20040;-75
2021/03/17 00:05:52;;;;;;;12.52;8.50;;;128.80;2150.40;;;;;;5079373;28;20424;-76
2021/03/17 00:08:20;;;;;;;13.65;9.63;;;128.70;2150.40;;;;;;5072282;28;20476;-76
2021/03/17 00:10:51;;;;;;;14.45;8.85;;;128.70;2150.40;;;;;;5071270;28;20048;-75
2021/03/17 00:13:28;;;;;;;9.82;7.43;;;128.70;2150.40;;;;;;5054819;28;20085;-75
2021/03/17 00:16:03;;;;;;;13.13;8.07;;;128.60;2150.40;;;;;;5074906;28;20066;-75
2021/03/17 00:18:29;;;;;;;9.57;8.50;;;128.70;2150.40;;;;;;5059562;28;20389;-75
2021/03/17 00:20:58;;;;;;;8.20;6.53;;;128.60;2150.40;;;;;;5070297;28;20023;-75
2021/03/17 00:23:24;;;;;;;11.32;7.28;;;128.50;2176.00;;;;;;5071339;28;20017;-75
2021/03/17 00:25:50;;;;;;;10.05;6.63;;;128.50;2176.00;;;;;;5059497;28;20024;-76
2021/03/17 00:28:15;;;;;;;12.45;7.38;;;128.50;2176.00;;;;;;5075662;28;20024;-75
2021/03/17 00:30:42;;;;;;;12.00;7.80;;;128.50;2176.00;;;;;;5053870;28;20388;-75
2021/03/17 00:33:11;;;;;;;11.45;7.18;;;128.50;2176.00;;;;;;5052440;28;20481;-74
2021/03/17 00:35:38;;;;;;;8.63;6.22;;;128.40;2176.00;;;;;;5061489;28;20033;-75
2021/03/17 00:38:07;;;;;;;7.32;6.05;;;128.40;2176.00;;;;;;5053741;28;20028;-75
2021/03/17 00:40:33;;;;;;;11.43;7.55;;;128.40;2176.00;;;;;;5050601;28;20388;-74
2021/03/17 00:42:59;;;;;;;8.73;6.70;;;128.50;2176.00;;;;;;5071358;28;20382;-74
2021/03/17 00:45:26;;;;;;;8.50;6.15;;;128.30;2176.00;;;;;;5064647;28;20488;-74
2021/03/17 00:47:52;;;;;;;9.07;6.38;;;128.30;2201.60;;;;;;5071895;28;20029;-74
2021/03/17 00:50:19;;;;;;;8.38;6.47;;;128.50;2201.60;;;;;;5071417;28;20021;-74
2021/03/17 00:52:45;;;;;;;11.80;6.43;;;128.20;2201.60;;;;;;5053404;28;20023;-74
2021/03/17 00:55:12;;;;;;;7.82;5.78;;;128.20;2201.60;;;;;;5053327;28;20021;-74
2021/03/17 00:57:39;;;;;;;8.88;6.70;;;128.20;2201.60;;;;;;5053313;28;20480;-74
2021/03/17 01:00:14;;;;;;;9.20;6.25;;;128.20;2201.60;;;;;;5071637;28;20025;-75
2021/03/17 01:02:40;;;;;;;9.07;6.53;;;128.20;2201.60;;;;;;5072919;28;20044;-75
2021/03/17 01:05:07;;;;;;;9.10;6.55;;;128.20;2201.60;;;;;;5075611;28;20051;-75
2021/03/17 01:07:33;;;;;;;9.95;7.05;;;128.20;2201.60;;;;;;5057140;28;20070;-75
2021/03/17 01:09:59;;;;;;;10.73;7.32;;;128.20;2201.60;;;;;;5057315;28;20033;-75
2021/03/17 01:12:25;;;;;;;10.00;6.40;;;128.20;2227.20;;;;;;5074635;28;20055;-75
2021/03/17 01:14:51;;;;;;;11.15;7.13;;;128.10;2227.20;;;;;;5057275;28;20040;-75
2021/03/17 01:17:17;;;;;;;10.35;6.57;;;128.10;2227.20;;;;;;5070872;28;20094;-74
2021/03/17 01:19:42;;;;;;;9.02;6.00;;;128.10;2227.20;;;;;;5079149;28;20016;-75
2021/03/17 01:22:09;;;;;;;9.80;7.25;;;128.00;2227.20;;;;;;5083467;28;20028;-75
2021/03/17 01:24:35;;;;;;;10.55;6.35;;;128.00;2227.20;;;;;;5076783;28;20545;-75
2021/03/17 01:27:03;;;;;;;9.77;7.00;;;128.00;2252.80;;;;;;5079344;28;20028;-75
2021/03/17 01:29:29;;;;;;;13.13;7.50;;;128.00;2252.80;;;;;;5076900;28;20028;-75
2021/03/17 01:31:57;;;;;;;11.43;7.43;;;103.30;2227.20;;;;;;5078322;28;20032;-75
2021/03/17 01:34:23;;;;;;;11.32;7.53;;;103.30;2227.20;;;;;;5059054;28;20467;-76
2021/03/17 01:36:51;;;;;;;11.85;7.13;;;103.30;2227.20;;;;;;5077137;28;20101;-74
2021/03/17 01:39:20;;;;;;;8.25;6.50;;;103.20;2227.20;;;;;;5052423;28;20018;-74
2021/03/17 01:41:45;;;;;;;11.70;7.72;;;103.30;2227.20;;;;;;5069153;28;20104;-75
2021/03/17 01:44:11;;;;;;;9.45;7.07;;;103.20;2227.20;;;;;;5060672;28;20448;-75
2021/03/17 01:46:37;;;;;;;10.27;7.78;;;103.20;2227.20;;;;;;5056160;28;20020;-75
2021/03/17 01:49:03;;;;;;;9.48;7.43;;;103.20;2227.20;;;;;;5056357;28;20443;-74
2021/03/17 01:51:28;;;;;;;9.13;6.93;;;103.20;2227.20;;;;;;5056330;28;20597;-74
2021/03/17 01:53:55;;;;;;;9.05;7.15;;;103.20;2227.20;;;;;;5073969;28;20036;-74
2021/03/17 01:56:21;;;;;;;8.30;6.68;;;103.10;2227.20;;;;;;5055953;28;20070;-74
2021/03/17 01:58:49;;;;;;;10.77;7.57;;;103.10;2227.20;;;;;;5074271;28;20012;-75
2021/03/17 02:01:17;;;;;;;8.07;6.68;;;103.10;2227.20;;;;;;5072415;28;20036;-75
2021/03/17 02:03:46;;;;;;;11.63;8.18;;;103.10;2227.20;;;;;;5047270;28;20032;-75
2021/03/17 02:06:12;;;;;;;9.75;8.02;;;103.10;2227.20;;;;;;5053228;28;20025;-74
2021/03/17 02:08:46;;;;;;;10.48;8.48;;;103.10;2227.20;;;;;;5044873;28;20507;-74
2021/03/17 02:11:13;;;;;;;10.40;8.15;;;103.00;2227.20;;;;;;5074321;28;20527;-74
2021/03/17 02:13:54;;;;;;;12.43;8.35;;;103.00;2227.20;;;;;;5073724;28;20024;-74
2021/03/17 02:16:34;;;;;;;12.05;8.15;;;103.00;2227.20;;;;;;5056408;28;20037;-74
2021/03/17 02:19:09;;;;;;;12.35;9.32;;;103.00;2227.20;;;;;;5061409;28;20046;-74
2021/03/17 02:22:05;;;;;;;9.27;7.45;;;102.90;2227.20;;;;;;5073604;28;20039;-74
2021/03/17 02:24:33;;;;;;;12.63;7.55;;;103.00;2227.20;;;;;;5073588;28;20012;-74
2021/03/17 02:27:25;;;;;;;11.32;8.10;;;102.90;2227.20;;;;;;5056053;28;20370;-74
2021/03/17 02:30:06;;;;;;;11.35;8.25;;;102.90;2227.20;;;;;;5056138;28;20031;-74
2021/03/17 02:32:56;;;;;;;9.68;7.43;;;102.90;2227.20;;;;;;5060069;28;20016;-74
2021/03/17 02:35:27;;;;;;;13.77;8.95;;;102.90;2227.20;;;;;;5073515;28;20028;-73
2021/03/17 02:37:55;;;;;;;12.82;7.88;;;102.90;2227.20;;;;;;5073862;28;20032;-74
2021/03/17 02:40:34;;;;;;;13.18;9.18;;;102.80;2227.20;;;;;;5088253;28;20099;-74
2021/03/17 02:43:21;;;;;;;12.10;9.23;;;102.80;2227.20;;;;;;5066839;28;20366;-74
2021/03/17 02:45:53;;;;;;;12.55;8.50;;;102.80;2227.20;;;;;;5075519;28;20024;-74
2021/03/17 02:48:25;;;;;;;11.95;9.00;;;102.80;2227.20;;;;;;5059434;28;20040;-75
2021/03/17 02:50:54;;;;;;;10.95;8.65;;;102.80;2227.20;;;;;;5073778;28;20021;-74
2021/03/17 02:53:24;;;;;;;11.88;7.35;;;102.80;2227.20;;;;;;5073094;28;20029;-74
2021/03/17 02:55:54;;;;;;;10.27;7.43;;;102.70;2227.20;;;;;;5073012;28;20090;-74
2021/03/17 02:58:23;;;;;;;11.43;8.30;;;102.70;2227.20;;;;;;5055217;28;20017;-74
2021/03/17 03:00:50;;;;;;;13.25;8.93;;;102.70;2227.20;;;;;;5072726;28;20130;-74
2021/03/17 03:03:17;;;;;;;10.20;8.60;;;102.70;2227.20;;;;;;5073176;28;20012;-74
2021/03/17 03:05:43;;;;;;;12.43;8.65;;;102.70;2227.20;;;;;;5072497;28;20043;-74
2021/03/17 03:08:16;;;;;;;12.90;8.73;;;102.60;2227.20;;;;;;5073207;28;20511;-74
2021/03/17 03:10:46;;;;;;;11.75;7.80;;;102.60;2227.20;;;;;;5051656;28;20029;-74
2021/03/17 03:13:12;;;;;;;11.40;7.55;;;102.60;2227.20;;;;;;5072784;28;20111;-74
2021/03/17 03:15:38;;;;;;;12.57;9.48;;;102.60;2227.20;;;;;;5077432;28;20465;-74
2021/03/17 03:18:09;;;;;;;11.10;8.82;;;102.50;2227.20;;;;;;5072609;28;20111;-74
2021/03/17 03:20:36;;;;;;;13.75;8.15;;;102.60;2227.20;;;;;;5051939;28;20031;-74
2021/03/17 03:23:02;;;;;;;12.05;7.93;;;102.60;2227.20;;;;;;5055965;28;20426;-74
2021/03/17 03:25:28;;;;;;;11.25;8.18;;;102.70;2227.20;;;;;;5078568;28;20052;-74
2021/03/17 03:28:00;;;;;;;10.00;8.10;;;102.60;2227.20;;;;;;5057674;28;20248;-74
2021/03/17 03:30:38;;;;;;;11.63;7.75;;;102.60;2227.20;;;;;;5073822;28;20048;-74
2021/03/17 03:33:07;;;;;;;11.20;8.60;;;102.60;2227.20;;;;;;5048947;28;20028;-74
2021/03/17 03:35:33;;;;;;;11.45;7.90;;;102.70;2227.20;;;;;;5078421;28;20073;-74
2021/03/17 03:38:05;;;;;;;13.10;9.43;;;102.60;2227.20;;;;;;5066383;28;20021;-74
2021/03/17 03:40:31;;;;;;;14.48;8.50;;;102.60;2227.20;;;;;;5055953;28;20366;-74
2021/03/17 03:42:57;;;;;;;12.95;8.95;;;102.60;2227.20;;;;;;5067924;28;20047;-74
2021/03/17 03:45:24;;;;;;;11.35;7.82;;;102.70;2227.20;;;;;;5066458;28;20071;-74
2021/03/17 03:47:50;;;;;;;11.23;7.78;;;102.70;2227.20;;;;;;5072215;28;20020;-75
2021/03/17 03:50:19;;;;;;;13.52;8.25;;;102.70;2227.20;;;;;;5051869;28;20028;-75
2021/03/17 03:53:11;;;;;;;11.35;8.00;;;102.70;2227.20;;;;;;5054053;28;20029;-75
2021/03/17 03:55:49;;;;;;;12.75;8.27;;;102.70;2227.20;;;;;;5048994;28;20021;-75
2021/03/17 03:58:43;;;;;;;13.48;8.68;;;102.70;2227.20;;;;;;5072253;28;20544;-75
2021/03/17 04:01:12;;;;;;;11.07;8.25;;;102.70;2227.20;;;;;;5071659;28;20036;-75
2021/03/17 04:03:45;;;;;;;13.30;8.80;;;102.70;2227.20;;;;;;5053879;28;20019;-75
2021/03/17 04:06:13;;;;;;;12.35;8.20;;;102.70;2227.20;;;;;;5053457;28;20043;-74
2021/03/17 04:08:46;;;;;;;11.30;8.45;;;102.70;2227.20;;;;;;5071735;28;20020;-74
2021/03/17 04:11:13;;;;;;;13.75;9.18;;;102.70;2227.20;;;;;;5054179;28;20085;-75
2021/03/17 04:13:40;;;;;;;18.20;9.77;;;102.60;2227.20;;;;;;5071893;28;20025;-75
2021/03/17 04:16:07;;;;;;;11.00;8.38;;;102.60;2227.20;;;;;;5071324;28;20047;-73
2021/03/17 04:18:38;;;;;;;13.20;8.90;;;102.70;2227.20;;;;;;5054105;28;20401;-75
2021/03/17 04:21:09;;;;;;;13.15;8.35;;;102.60;2227.20;;;;;;5053853;28;20432;-75
2021/03/17 04:23:37;;;;;;;12.98;8.95;;;102.60;2227.20;;;;;;5053131;28;20523;-76
2021/03/17 04:26:04;;;;;;;15.43;9.77;;;102.70;2227.20;;;;;;5071714;28;20029;-75
2021/03/17 04:28:31;;;;;;;14.98;9.80;;;102.60;2227.20;;;;;;5054227;28;20031;-75
2021/03/17 04:31:00;;;;;;;15.50;9.48;;;102.60;2227.20;;;;;;5071426;28;20095;-74
2021/03/17 04:33:28;;;;;;;16.23;10.05;;;102.60;2227.20;;;;;;5071392;28;20712;-73
2021/03/17 04:35:56;;;;;;;15.10;9.82;;;102.60;2227.20;;;;;;5051617;28;20025;-74
2021/03/17 04:38:24;;;;;;;13.10;8.82;;;102.60;2227.20;;;;;;5056518;28;20388;-75
2021/03/17 04:40:51;;;;;;;13.15;8.90;;;102.60;2227.20;;;;;;5069963;28;20051;-75
2021/03/17 04:43:17;;;;;;;19.40;11.57;;;102.60;2227.20;;;;;;5063535;28;20036;-75
2021/03/17 04:45:45;;;;;;;15.85;9.20;;;102.60;2227.20;;;;;;5052546;28;20090;-75
2021/03/17 04:48:11;;;;;;;11.95;9.13;;;102.60;2227.20;;;;;;5057587;28;20158;-75
2021/03/17 04:50:39;;;;;;;15.85;9.48;;;102.60;2227.20;;;;;;5075882;28;20034;-74
2021/03/17 04:53:09;;;;;;;13.80;9.80;;;102.60;2227.20;;;;;;5057380;28;20035;-75
2021/03/17 04:55:35;;;;;;;14.65;9.68;;;102.60;2227.20;;;;;;5075425;28;20077;-74
2021/03/17 04:58:02;;;;;;;10.68;8.63;;;102.60;2227.20;;;;;;5075647;28;20108;-74
2021/03/17 05:00:28;;;;;;;15.25;9.43;;;102.60;2227.20;;;;;;5057473;28;20618;-74
2021/03/17 05:03:00;;;;;;;14.27;10.45;;;102.60;2227.20;;;;;;5075069;28;20036;-73
2021/03/17 05:05:30;;;;;;;14.18;9.45;;;102.60;2227.20;;;;;;5074976;28;20013;-74
2021/03/17 05:07:56;;;;;;;13.68;8.98;;;102.70;2227.20;;;;;;5070296;28;20432;-74
2021/03/17 05:10:26;;;;;;;15.35;10.52;;;102.60;2227.20;;;;;;5066166;28;20121;-74
2021/03/17 05:12:53;;;;;;;14.02;9.52;;;102.70;2227.20;;;;;;5066368;28;20028;-74
2021/03/17 05:15:20;;;;;;;14.93;10.68;;;102.70;2227.20;;;;;;5075207;28;20041;-74
2021/03/17 05:17:47;;;;;;;13.20;9.13;;;102.60;2227.20;;;;;;5066269;28;20040;-74
2021/03/17 05:20:16;;;;;;;13.73;9.35;;;102.70;2227.20;;;;;;5084560;28;20021;-74
2021/03/17 05:22:43;;;;;;;14.52;9.68;;;102.70;2227.20;;;;;;5052868;28;20025;-74
2021/03/17 05:25:11;;;;;;;11.52;8.85;;;102.60;2227.20;;;;;;5059410;28;20032;-74
2021/03/17 05:27:37;;;;;;;18.35;11.55;;;102.70;2227.20;;;;;;5082871;28;20028;-73
2021/03/17 05:30:07;;;;;;;16.83;10.30;;;102.70;2227.20;;;;;;5070921;28;20075;-75
2021/03/17 05:32:34;;;;;;;15.63;11.40;;;102.70;2227.20;;;;;;5048768;28;20043;-74
2021/03/17 05:35:03;;;;;;;12.82;10.13;;;102.70;2227.20;;;;;;5083311;28;20063;-74
2021/03/17 05:37:29;;;;;;;15.32;9.25;;;102.70;2227.20;;;;;;5071640;28;20047;-75
2021/03/17 05:39:56;;;;;;;14.25;9.82;;;102.70;2227.20;;;;;;5069383;28;20055;-74
2021/03/17 05:42:23;;;;;;;17.60;10.75;;;102.70;2227.20;;;;;;5069735;28;20021;-74
2021/03/17 05:44:51;;;;;;;14.20;10.23;;;102.80;2227.20;;;;;;5074042;28;20052;-74
2021/03/17 05:47:18;;;;;;;16.17;10.90;;;102.80;2227.20;;;;;;5055553;28;20508;-74
2021/03/17 05:49:45;;;;;;;14.90;10.23;;;102.90;2227.20;;;;;;5073858;28;20100;-74
2021/03/17 05:52:13;;;;;;;15.40;10.38;;;102.90;2227.20;;;;;;5056117;28;20802;-74
2021/03/17 05:54:38;;;;;;;18.35;12.02;;;102.90;2227.20;;;;;;5081407;28;20033;-74
2021/03/17 05:57:05;;;;;;;16.33;10.77;;;102.90;2227.20;;;;;;5064038;28;20032;-74
2021/03/17 05:59:30;;;;;;;15.48;11.07;;;102.90;2227.20;;;;;;5056689;28;20029;-74
2021/03/17 06:01:58;;;;;;;18.17;12.18;;;103.00;2227.20;;;;;;5057635;28;20024;-74
2021/03/17 06:04:26;;;;;;;16.70;10.68;;;103.10;2201.60;;;;;;5057881;28;20035;-74
2021/03/17 06:06:57;;;;;;;17.80;11.20;;;103.10;2201.60;;;;;;5075392;28;20025;-74
2021/03/17 06:09:33;;;;;;;17.88;10.82;;;103.20;2201.60;;;;;;5056905;28;20028;-74
2021/03/17 06:11:59;;;;;;;24.55;13.50;;;103.30;2176.00;;;;;;5074011;28;20059;-74
2021/03/17 06:14:38;;;;;;;15.65;10.35;;;103.30;2201.60;;;;;;5073327;28;20508;-74
2021/03/17 06:17:15;;;;;;;14.77;10.27;;;103.30;2176.00;;;;;;5066974;28;20153;-74
2021/03/17 06:19:43;;;;;;;17.80;10.02;;;103.30;2176.00;;;;;;5085499;28;20078;-74
2021/03/17 06:22:10;;;;;;;16.67;10.65;;;128.00;2201.60;;;;;;5080071;28;20481;-77
2021/03/17 06:24:37;;;;;;;17.30;11.45;;;128.00;2201.60;;;;;;5085545;28;20039;-75
2021/03/17 06:27:04;;;;;;;16.55;11.07;;;128.00;2201.60;;;;;;5067227;28;20024;-75
2021/03/17 06:29:32;;;;;;;17.40;10.95;;;128.20;2176.00;;;;;;5073926;28;20024;-75
2021/03/17 06:31:59;;;;;;;18.58;12.00;;;128.20;2150.40;;;;;;5069143;28;20056;-74
2021/03/17 06:34:24;;;;;;;17.27;12.18;;;128.40;2176.00;;;;;;5046750;28;20429;-74
2021/03/17 06:36:55;;;;;;;18.05;11.10;;;128.40;2176.00;;;;;;5075887;28;20078;-74
2021/03/17 06:39:21;;;;;;;15.13;10.55;;;128.40;2150.40;;;;;;5076301;28;20099;-74
2021/03/17 06:41:51;;;;;;;17.10;11.32;;;128.50;2124.80;;;;;;5068380;28;20049;-74
2021/03/17 06:44:28;;;;;;;17.65;10.18;;;128.70;2124.80;;;;;;5042418;28;20511;-74
2021/03/17 06:47:14;;;;;;;15.43;11.70;;;128.70;2124.80;;;;;;5050658;28;20405;-74
2021/03/17 06:49:42;;;;;;;17.75;11.02;;;128.70;2150.40;;;;;;5073208;28;20762;-74
2021/03/17 06:52:33;;;;;;;19.38;11.27;;;128.80;2099.20;;;;;;5060356;28;20145;-74
2021/03/17 06:55:22;;;;;;;20.42;13.02;;;128.90;2124.80;;;;;;5081013;28;20032;-74
2021/03/17 06:57:52;;;;;;;14.85;10.15;;;128.80;2124.80;;;;;;5058176;28;20028;-74
2021/03/17 07:00:24;;;;;;;17.90;10.38;;;128.80;2124.80;;;;;;5054165;28;20055;-74
2021/03/17 07:03:11;;;;;;;15.38;11.50;;;128.80;2099.20;;;;;;5077983;28;20066;-74
2021/03/17 07:05:55;;;;;;;15.77;11.57;;;128.90;2124.80;;;;;;5075391;28;20469;-74
2021/03/17 07:08:29;;;;;;;19.25;12.75;;;153.60;2099.20;;;;;;5072762;28;20024;-74
2021/03/17 07:11:00;;;;;;;20.85;11.75;;;153.60;2099.20;;;;;;5055618;28;20028;-74
2021/03/17 07:13:27;;;;;;;21.20;11.68;;;153.70;2099.20;;;;;;5073673;28;20028;-75
2021/03/17 07:15:55;;;;;;;19.45;12.50;;;153.70;2099.20;;;;;;5064431;28;20066;-74
2021/03/17 07:18:25;;;;;;;17.45;11.82;;;153.80;2073.60;;;;;;5075209;28;20063;-75
2021/03/17 07:20:53;;;;;;;19.50;12.93;;;154.00;2073.60;;;;;;5063971;28;20385;-75
2021/03/17 07:23:27;;;;;;;19.98;13.05;;;154.10;2073.60;;;;;;5082767;28;20028;-75
2021/03/17 07:26:09;;;;;;;26.92;14.35;;;154.20;2048.00;;;;;;5071025;28;20064;-74
2021/03/17 07:28:54;;;;;;;18.27;12.50;;;154.30;2048.00;;;;;;5069231;28;20073;-75
2021/03/17 07:31:46;;;;;;;21.48;11.55;;;154.50;2022.40;;;;;;5079657;28;20036;-75
2021/03/17 07:34:17;;;;;;;14.57;11.40;;;179.20;2022.40;;;;;;4994350;28;20077;-75
2021/03/17 07:36:47;;;;;;;21.30;13.15;;;179.20;2022.40;;;;;;5012821;28;20071;-75
2021/03/17 07:39:37;;;;;;;22.05;13.18;;;179.20;2022.40;;;;;;4992857;28;20026;-74
2021/03/17 07:42:07;;;;;;;14.88;10.30;;;179.50;1996.80;;;;;;5013128;28;20058;-75
2021/03/17 07:44:35;;;;;;;20.60;13.98;;;179.40;1971.20;;;;;;5009969;28;20069;-75
2021/03/17 07:47:04;;;;;;;19.55;13.63;;;179.60;1971.20;;;;;;4992728;28;20030;-75
2021/03/17 07:49:30;;;;;;;17.73;12.07;;;179.70;1971.20;;;;;;4992724;28;20100;-75
2021/03/17 07:51:59;;;;;;;15.70;11.30;;;179.80;1971.20;;;;;;5009245;28;20038;-75
2021/03/17 07:54:31;;;;;;;21.08;13.20;;;179.90;1971.20;;;;;;5010125;28;20490;-75
2021/03/17 07:57:01;;;;;;;16.48;12.15;;;180.00;1945.60;;;;;;5001983;28;20025;-75
2021/03/17 07:59:29;;;;;;;18.65;12.00;;;180.10;1920.00;;;;;;4994679;28;20069;-74
2021/03/17 08:01:56;;;;;;;15.48;11.63;;;204.80;1920.00;;;;;;5017745;28;20021;-75
2021/03/17 08:04:29;;;;;;;18.10;13.27;;;204.90;1920.00;;;;;;5003162;28;20061;-74
2021/03/17 08:06:56;;;;;;;16.75;12.10;;;205.10;1920.00;;;;;;5014118;28;20041;-74
2021/03/17 08:09:22;;;;;;;17.83;12.77;;;205.20;1920.00;;;;;;4997115;28;20442;-74
2021/03/17 08:11:50;;;;;;;20.05;13.10;;;205.30;1868.80;;;;;;5057675;28;20082;-74
2021/03/17 08:14:18;;;;;;;17.80;11.80;;;205.50;1868.80;;;;;;5051590;28;20105;-75
2021/03/17 08:16:45;;;;;;;18.38;12.48;;;230.40;1817.60;;;;;;5056651;28;20068;-74
2021/03/17 08:19:23;;;;;;;20.35;13.10;;;230.50;1843.20;;;;;;5067668;28;20019;-74
2021/03/17 08:22:00;;;;;;;16.10;11.45;;;230.80;1817.60;;;;;;5069160;28;20024;-75
2021/03/17 08:24:40;;;;;;;20.90;14.55;;;230.90;1792.00;;;;;;5068256;28;20025;-75
2021/03/17 08:27:06;;;;;;;15.85;12.13;;;230.90;1792.00;;;;;;5069783;28;20029;-74
2021/03/17 08:29:45;;;;;;;15.70;11.48;;;231.00;1766.40;;;;;;5072229;28;20040;-74
2021/03/17 08:32:13;;;;;;;22.42;14.68;;;230.90;1792.00;;;;;;5070189;28;20116;-75
2021/03/17 08:34:40;;;;;;;19.25;13.75;;;231.10;1766.40;;;;;;5069276;28;20020;-74
2021/03/17 08:37:15;;;;;;;19.70;13.27;;;231.10;1792.00;;;;;;5069405;28;20060;-74
2021/03/17 08:39:44;;;;;;;18.27;12.88;;;231.20;1792.00;;;;;;5050491;28;20039;-74
2021/03/17 08:42:31;;;;;;;21.40;14.15;;;231.20;1740.80;;;;;;5051440;28;20020;-74
2021/03/17 08:45:14;;;;;;;19.42;13.57;;;256.10;1740.80;;;;;;5070224;28;20040;-74
2021/03/17 08:47:45;;;;;;;17.33;12.07;;;256.30;1715.20;;;;;;5051783;28;20092;-74
2021/03/17 08:50:22;;;;;;;17.35;11.85;;;256.30;1689.60;;;;;;5066608;28;20111;-75
2021/03/17 08:52:52;;;;;;;17.30;12.88;;;256.70;1664.00;;;;;;5067314;28;20091;-74
2021/03/17 08:55:42;;;;;;;17.52;12.18;;;256.70;1664.00;;;;;;5049187;28;20030;-74
2021/03/17 08:58:28;;;;;;;19.05;12.68;;;256.60;1638.40;;;;;;5067187;28;20040;-75
2021/03/17 09:01:01;;;;;;;17.77;11.93;;;256.50;1638.40;;;;;;5049695;28;20119;-75
2021/03/17 09:03:43;;;;;;;17.75;13.70;;;256.70;1612.80;;;;;;5051124;28;20024;-74
2021/03/17 09:06:27;;;;;;;18.10;14.15;;;281.60;1664.00;;;;;;5063747;28;20103;-76
2021/03/17 09:09:25;;;;;;;17.27;12.40;;;281.70;1638.40;;;;;;5068075;28;20017;-76
2021/03/17 09:11:51;;;;;;;18.10;12.70;;;281.70;1638.40;;;;;;4975610;28;20500;-74
2021/03/17 09:14:23;;;;;;;16.52;12.32;;;282.10;1612.80;;;;;;4990609;28;20419;-75
2021/03/17 09:17:09;;;;;;;18.45;13.40;;;282.10;1587.20;;;;;;4997427;28;20046;-75
2021/03/17 09:19:59;;;;;;;20.17;11.75;;;307.20;1587.20;;;;;;4987163;28;20057;-75
2021/03/17 09:22:36;;;;;;;19.70;12.75;;;307.40;1536.00;;;;;;4988112;28;20582;-75
2021/03/17 09:25:17;;;;;;;17.73;12.77;;;307.70;1536.00;;;;;;4994055;28;20386;-74
2021/03/17 09:27:48;;;;;;;15.50;10.88;;;307.60;1484.80;;;;;;4992891;28;20036;-74
2021/03/17 09:30:16;;;;;;;16.38;11.73;;;307.70;1408.00;;;;;;4994644;28;20802;-75
2021/03/17 09:32:43;;;;;;;12.05;9.77;;;308.00;1484.80;;;;;;4995934;28;20026;-74
2021/03/17 09:35:09;;;;;;;18.05;12.27;;;307.90;1433.60;;;;;;5000777;28;20490;-74
2021/03/17 09:37:35;;;;;;;15.20;12.15;;;308.10;1433.60;;;;;;4985397;28;20655;-75
2021/03/17 09:40:01;;;;;;;15.48;10.98;;;308.10;1433.60;;;;;;5002429;28;20129;-75
2021/03/17 09:42:27;;;;;;;20.65;13.05;;;307.80;1408.00;;;;;;4997087;28;20040;-76
2021/03/17 09:44:59;;;;;;;15.30;9.15;;;307.60;1408.00;;;;;;4999872;28;20105;-75
2021/03/17 09:47:29;;;;;;;15.98;10.35;;;282.50;1331.20;;;;;;5009708;28;20040;-75
2021/03/17 09:49:55;;;;;;;18.30;11.23;;;282.40;1382.40;;;;;;5061159;28;20095;-75
2021/03/17 09:52:21;;;;;;;16.85;10.45;;;307.20;1382.40;;;;;;5056332;28;20028;-75
2021/03/17 09:54:47;;;;;;;15.00;10.90;;;308.00;1280.00;;;;;;5077213;28;20024;-75
2021/03/17 09:57:13;;;;;;;14.32;10.23;;;332.90;1305.60;;;;;;5052493;28;20422;-75
2021/03/17 09:59:46;;;;;;;14.70;9.27;;;307.90;1280.00;;;;;;5054535;28;20063;-76
2021/03/17 10:02:24;;;;;;;11.40;8.90;;;332.90;1254.40;;;;;;5057465;28;20017;-75
2021/03/17 10:04:52;;;;;;;14.80;10.00;;;308.10;1254.40;;;;;;5050732;28;20074;-75
2021/03/17 10:07:26;;;;;;;13.27;8.50;;;308.00;1280.00;;;;;;5052763;28;20040;-75
2021/03/17 10:09:53;;;;;;;14.88;8.80;;;307.30;1254.40;;;;;;5046802;28;20051;-76
2021/03/17 10:12:22;;;;;;;15.70;9.57;;;307.80;1280.00;;;;;;5071086;28;20036;-76
2021/03/17 10:15:06;;;;;;;12.02;9.05;;;307.70;1331.20;;;;;;5055612;28;20864;-76
2021/03/17 10:17:32;;;;;;;13.45;9.75;;;307.40;1254.40;;;;;;5073449;28;20025;-74
2021/03/17 10:20:13;;;;;;;13.95;9.73;;;307.90;1280.00;;;;;;5055952;28;20557;-75
2021/03/17 10:22:39;;;;;;;14.13;11.00;;;307.40;1356.80;;;;;;5072818;28;20039;-75
2021/03/17 10:25:11;;;;;;;17.52;11.98;;;307.20;1382.40;;;;;;5055447;28;20021;-75
2021/03/17 10:27:49;;;;;;;14.35;8.57;;;282.30;1382.40;;;;;;5057626;28;20389;-75
2021/03/17 10:30:15;;;;;;;14.93;9.85;;;307.50;1254.40;;;;;;5072239;28;20038;-75
2021/03/17 10:32:43;;;;;;;11.63;8.30;;;307.20;1280.00;;;;;;5075019;28;20020;-75
2021/03/17 10:35:12;;;;;;;10.75;8.98;;;307.70;1254.40;;;;;;5051991;28;20497;-75
2021/03/17 10:37:38;;;;;;;17.73;10.38;;;307.90;1280.00;;;;;;5073189;28;20041;-75
2021/03/17 10:40:19;;;;;;;15.00;9.55;;;307.60;1280.00;;;;;;5072942;28;20489;-75
2021/03/17 10:42:49;;;;;;;14.70;9.07;;;307.50;1280.00;;;;;;5053601;28;20034;-75
2021/03/17 10:45:16;;;;;;;12.98;9.30;;;308.10;1203.20;;;;;;5070793;28;20388;-75
2021/03/17 10:47:43;;;;;;;17.55;11.73;;;332.80;1254.40;;;;;;5086563;28;20063;-75
2021/03/17 10:50:17;;;;;;;17.50;10.18;;;307.60;1254.40;;;;;;5054474;28;20389;-75
2021/03/17 10:52:45;;;;;;;13.15;9.57;;;332.80;1228.80;;;;;;5074056;28;20024;-75
2021/03/17 10:55:17;;;;;;;14.57;10.07;;;333.20;1203.20;;;;;;5070288;28;20032;-75
2021/03/17 10:57:44;;;;;;;15.02;9.68;;;333.10;1177.60;;;;;;5054572;28;20075;-74
2021/03/17 11:00:30;;;;;;;12.77;9.57;;;333.20;1203.20;;;;;;5069530;28;20056;-75
2021/03/17 11:02:56;;;;;;;20.13;10.20;;;333.00;1203.20;;;;;;5056070;28;20029;-75
2021/03/17 11:05:27;;;;;;;12.35;8.48;;;333.10;1203.20;;;;;;5054987;28;20031;-75
2021/03/17 11:08:07;;;;;;;13.50;9.07;;;333.10;1203.20;;;;;;5051528;28;20020;-75
2021/03/17 11:10:46;;;;;;;13.55;8.98;;;307.90;1228.80;;;;;;5076116;28;20020;-75
2021/03/17 11:13:11;;;;;;;12.65;9.25;;;333.10;1203.20;;;;;;5053559;28;20492;-75
2021/03/17 11:15:49;;;;;;;11.60;8.95;;;333.00;1203.20;;;;;;5050841;28;20041;-75
2021/03/17 11:18:31;;;;;;;12.85;8.15;;;332.90;1203.20;;;;;;5057256;28;20033;-75
2021/03/17 11:21:15;;;;;;;16.10;8.32;;;333.10;1203.20;;;;;;5066758;28;20032;-75
2021/03/17 11:23:42;;;;;;;14.88;9.80;;;332.80;1203.20;;;;;;5053547;28;20021;-75
2021/03/17 11:26:18;;;;;;;12.43;9.23;;;307.60;1228.80;;;;;;5074514;28;20032;-75
2021/03/17 11:28:44;;;;;;;11.75;8.50;;;307.80;1203.20;;;;;;5058385;28;20097;-75
2021/03/17 11:31:12;;;;;;;13.35;7.75;;;333.50;1126.40;;;;;;5063402;28;20477;-75
2021/03/17 11:33:39;;;;;;;11.75;8.85;;;358.70;1100.80;;;;;;5056507;28;20165;-75
2021/03/17 11:36:07;;;;;;;10.52;8.48;;;384.10;1075.20;;;;;;5048236;28;20051;-74
2021/03/17 11:38:34;;;;;;;12.05;9.43;;;384.50;998.40;;;;;;5068763;28;20039;-75
2021/03/17 11:41:00;;;;;;;11.57;8.73;;;384.00;1049.60;;;;;;5055749;28;20013;-74
2021/03/17 11:43:29;;;;;;;14.05;9.43;;;358.80;1100.80;;;;;;5054086;28;20020;-75
2021/03/17 11:45:58;;;;;;;15.70;10.23;;;358.60;1100.80;;;;;;5053714;28;20106;-74
2021/03/17 11:48:24;;;;;;;11.45;8.65;;;333.50;1152.00;;;;;;5053128;28;20039;-75
2021/03/17 11:50:52;;;;;;;12.60;8.45;;;333.40;1152.00;;;;;;5071492;28;20088;-75
2021/03/17 11:53:19;;;;;;;13.55;10.05;;;333.60;1126.40;;;;;;5071996;28;20551;-75
2021/03/17 11:55:45;;;;;;;11.27;8.63;;;333.60;1152.00;;;;;;5071279;28;20040;-75
2021/03/17 11:58:12;;;;;;;11.55;9.38;;;358.60;1075.20;;;;;;5071307;28;20024;-75
2021/03/17 12:00:38;;;;;;;11.93;9.82;;;333.60;1100.80;;;;;;5054024;28;20477;-75
2021/03/17 12:03:05;;;;;;;12.07;9.07;;;333.10;1177.60;;;;;;5067764;28;20107;-74
2021/03/17 12:05:31;;;;;;;10.00;7.95;;;332.90;1177.60;;;;;;5055807;28;20108;-75
2021/03/17 12:07:57;;;;;;;14.50;9.35;;;307.90;1203.20;;;;;;5065484;28;20036;-74
2021/03/17 12:10:24;;;;;;;13.35;9.48;;;307.80;1203.20;;;;;;5071684;28;20028;-75
2021/03/17 12:12:50;;;;;;;14.30;9.93;;;332.80;1228.80;;;;;;5051953;28;20044;-75
2021/03/17 12:15:20;;;;;;;12.90;9.77;;;332.80;1254.40;;;;;;5071204;28;20036;-74
2021/03/17 12:17:46;;;;;;;19.85;10.95;;;332.80;1203.20;;;;;;5061778;28;20078;-76
2021/03/17 12:20:14;;;;;;;12.43;9.90;;;332.80;1228.80;;;;;;5072881;28;20036;-74
2021/03/17 12:22:39;;;;;;;15.95;11.52;;;332.90;1228.80;;;;;;5056789;28;20476;-74